sensor_id;sensor_type;location;lat;lon;timestamp;pressure;altitude;pressure_sealevel;temperature;humidity
54038;BME280;39954;48.844;9.726;2023-05-09T00:00:36;96371.25;;;11.22;100.00
54038;BME280;39954;48.844;9.726;2023-05-09T00:01:41;96378.22;;;11.21;100.00
54038;BME280;39954;48.844;9.726;2023-05-09T00:02:46;96370.44;;;11.21;100.00
54038;BME280;39954;48.844;9.726;2023-05-09T00:03:50;96373.09;;;11.19;100.00
54038;BME280;39954;48.844;9.726;2023-05-09T00:04:53;96371.34;;;11.20;100.00
54038;BME280;39954;48.844;9.726;2023-05-09T00:05:57;96369.66;;;11.19;100.00
54038;BME280;39954;48.844;9.726;2023-05-09T00:07:00;96378.56;;;11.15;100.00
54038;BME280;39954;48.844;9.726;2023-05-09T00:08:05;96374.28;;;11.14;100.00
54038;BME280;39954;48.844;9.726;2023-05-09T00:09:07;96376.81;;;11.15;100.00
54038;BME280;39954;48.844;9.726;2023-05-09T00:10:12;96378.56;;;11.15;100.00
54038;BME280;39954;48.844;9.726;2023-05-09T00:11:14;96373.53;;;11.12;100.00
54038;BME280;39954;48.844;9.726;2023-05-09T00:12:21;96374.53;;;11.09;100.00
54038;BME280;39954;48.844;9.726;2023-05-09T00:13:24;96378.97;;;11.07;100.00
54038;BME280;39954;48.844;9.726;2023-05-09T00:14:29;96377.31;;;11.06;100.00
54038;BME280;39954;48.844;9.726;2023-05-09T00:15:31;96374.78;;;11.05;100.00
54038;BME280;39954;48.844;9.726;2023-05-09T00:16:36;96368.81;;;11.03;100.00
54038;BME280;39954;48.844;9.726;2023-05-09T00:17:38;96369.75;;;11.02;100.00
54038;BME280;39954;48.844;9.726;2023-05-09T00:18:43;96369.16;;;10.96;100.00
54038;BME280;39954;48.844;9.726;2023-05-09T00:19:45;96367.47;;;10.95;100.00
54038;BME280;39954;48.844;9.726;2023-05-09T00:20:50;96365.94;;;10.91;100.00
54038;BME280;39954;48.844;9.726;2023-05-09T00:21:53;96360.16;;;10.86;100.00
54038;BME280;39954;48.844;9.726;2023-05-09T00:22:57;96362.84;;;10.85;100.00
54038;BME280;39954;48.844;9.726;2023-05-09T00:23:59;96355.06;;;10.85;100.00
54038;BME280;39954;48.844;9.726;2023-05-09T00:25:05;96367.22;;;10.84;100.00
54038;BME280;39954;48.844;9.726;2023-05-09T00:26:08;96359.72;;;10.78;100.00
54038;BME280;39954;48.844;9.726;2023-05-09T00:27:13;96353.09;;;10.72;100.00
54038;BME280;39954;48.844;9.726;2023-05-09T00:28:18;96362.06;;;10.67;100.00
54038;BME280;39954;48.844;9.726;2023-05-09T00:29:23;96356.84;;;10.67;100.00
54038;BME280;39954;48.844;9.726;2023-05-09T00:30:25;96359.63;;;10.64;100.00
54038;BME280;39954;48.844;9.726;2023-05-09T00:31:29;96355.41;;;10.61;100.00
54038;BME280;39954;48.844;9.726;2023-05-09T00:32:32;96356.34;;;10.60;100.00
54038;BME280;39954;48.844;9.726;2023-05-09T00:33:37;96357.44;;;10.56;100.00
54038;BME280;39954;48.844;9.726;2023-05-09T00:34:39;96356.75;;;10.52;100.00
54038;BME280;39954;48.844;9.726;2023-05-09T00:35:44;96358.84;;;10.46;100.00
54038;BME280;39954;48.844;9.726;2023-05-09T00:36:46;96360.00;;;10.40;100.00
54038;BME280;39954;48.844;9.726;2023-05-09T00:37:51;96356.78;;;10.35;100.00
54038;BME280;39954;48.844;9.726;2023-05-09T00:38:53;96357.72;;;10.34;100.00
54038;BME280;39954;48.844;9.726;2023-05-09T00:39:58;96352.69;;;10.31;100.00
54038;BME280;39954;48.844;9.726;2023-05-09T00:41:00;96352.69;;;10.31;100.00
54038;BME280;39954;48.844;9.726;2023-05-09T00:42:11;96354.50;;;10.29;100.00
54038;BME280;39954;48.844;9.726;2023-05-09T00:43:13;96347.66;;;10.28;100.00
54038;BME280;39954;48.844;9.726;2023-05-09T00:46:22;96344.47;;;10.21;100.00
54038;BME280;39954;48.844;9.726;2023-05-09T00:47:27;96346.22;;;10.21;100.00
54038;BME280;39954;48.844;9.726;2023-05-09T00:48:30;96345.41;;;10.20;100.00
54038;BME280;39954;48.844;9.726;2023-05-09T00:49:34;96339.53;;;10.17;100.00
54038;BME280;39954;48.844;9.726;2023-05-09T00:50:36;96343.03;;;10.16;100.00
54038;BME280;39954;48.844;9.726;2023-05-09T00:51:41;96337.06;;;10.14;100.00
54038;BME280;39954;48.844;9.726;2023-05-09T00:52:43;96329.44;;;10.11;100.00
54038;BME280;39954;48.844;9.726;2023-05-09T00:53:48;96333.88;;;10.08;100.00
54038;BME280;39954;48.844;9.726;2023-05-09T00:54:51;96332.97;;;10.09;100.00
54038;BME280;39954;48.844;9.726;2023-05-09T00:55:57;96331.28;;;10.08;100.00
54038;BME280;39954;48.844;9.726;2023-05-09T00:57:00;96328.75;;;10.07;100.00
54038;BME280;39954;48.844;9.726;2023-05-09T00:58:05;96329.75;;;10.04;100.00
54038;BME280;39954;48.844;9.726;2023-05-09T00:59:07;96330.00;;;10.00;100.00
54038;BME280;39954;48.844;9.726;2023-05-09T01:00:13;96333.59;;;9.97;100.00
54038;BME280;39954;48.844;9.726;2023-05-09T01:01:16;96331.91;;;9.96;100.00
54038;BME280;39954;48.844;9.726;2023-05-09T01:02:23;96330.22;;;9.95;100.00
54038;BME280;39954;48.844;9.726;2023-05-09T01:03:27;96332.06;;;9.93;100.00
54038;BME280;39954;48.844;9.726;2023-05-09T01:04:32;96324.41;;;9.90;100.00
54038;BME280;39954;48.844;9.726;2023-05-09T01:05:39;96331.44;;;9.88;100.00
54038;BME280;39954;48.844;9.726;2023-05-09T01:06:52;96328.00;;;9.88;100.00
54038;BME280;39954;48.844;9.726;2023-05-09T01:08:02;96326.34;;;9.86;100.00
54038;BME280;39954;48.844;9.726;2023-05-09T01:09:16;96326.41;;;9.85;100.00
54038;BME280;39954;48.844;9.726;2023-05-09T01:10:25;96322.03;;;9.85;100.00
54038;BME280;39954;48.844;9.726;2023-05-09T01:11:38;96319.53;;;9.84;100.00
54038;BME280;39954;48.844;9.726;2023-05-09T01:12:47;96313.44;;;9.85;100.00
54038;BME280;39954;48.844;9.726;2023-05-09T01:13:59;96313.34;;;9.86;100.00
54038;BME280;39954;48.844;9.726;2023-05-09T01:15:11;96309.94;;;9.86;100.00
54038;BME280;39954;48.844;9.726;2023-05-09T01:16:22;96309.94;;;9.86;100.00
54038;BME280;39954;48.844;9.726;2023-05-09T01:17:37;96310.59;;;9.90;100.00
54038;BME280;39954;48.844;9.726;2023-05-09T01:18:48;96309.00;;;9.87;100.00
54038;BME280;39954;48.844;9.726;2023-05-09T01:19:57;96305.56;;;9.86;100.00
54038;BME280;39954;48.844;9.726;2023-05-09T01:21:06;96305.63;;;9.85;100.00
54038;BME280;39954;48.844;9.726;2023-05-09T01:22:11;96309.00;;;9.87;100.00
54038;BME280;39954;48.844;9.726;2023-05-09T01:23:44;96301.22;;;9.87;100.00
54038;BME280;39954;48.844;9.726;2023-05-09T01:26:43;96311.06;;;9.80;100.00
54038;BME280;39954;48.844;9.726;2023-05-09T01:27:52;96302.53;;;9.78;100.00
54038;BME280;39954;48.844;9.726;2023-05-09T01:29:19;96300.91;;;9.76;100.00
54038;BME280;39954;48.844;9.726;2023-05-09T01:30:29;96308.84;;;9.73;100.00
54038;BME280;39954;48.844;9.726;2023-05-09T01:31:37;96301.97;;;9.72;100.00
54038;BME280;39954;48.844;9.726;2023-05-09T01:32:42;96298.63;;;9.70;100.00
54038;BME280;39954;48.844;9.726;2023-05-09T01:33:53;96299.53;;;9.69;100.00
54038;BME280;39954;48.844;9.726;2023-05-09T01:35:00;96301.38;;;9.67;100.00
54038;BME280;39954;48.844;9.726;2023-05-09T01:36:10;96297.19;;;9.64;100.00
54038;BME280;39954;48.844;9.726;2023-05-09T01:37:14;96303.22;;;9.64;100.00
54038;BME280;39954;48.844;9.726;2023-05-09T01:38:22;96298.03;;;9.64;100.00
54038;BME280;39954;48.844;9.726;2023-05-09T01:39:27;96300.63;;;9.64;100.00
54038;BME280;39954;48.844;9.726;2023-05-09T01:40:33;96304.13;;;9.63;100.00
54038;BME280;39954;48.844;9.726;2023-05-09T01:41:36;96310.22;;;9.62;100.00
54038;BME280;39954;48.844;9.726;2023-05-09T01:42:43;96298.94;;;9.63;100.00
54038;BME280;39954;48.844;9.726;2023-05-09T01:43:47;96298.94;;;9.63;100.00
54038;BME280;39954;48.844;9.726;2023-05-09T01:44:57;96299.84;;;9.62;100.00
54038;BME280;39954;48.844;9.726;2023-05-09T01:46:00;96297.41;;;9.59;100.00
54038;BME280;39954;48.844;9.726;2023-05-09T01:47:07;96295.78;;;9.57;100.00
54038;BME280;39954;48.844;9.726;2023-05-09T01:48:10;96297.72;;;9.53;100.00
54038;BME280;39954;48.844;9.726;2023-05-09T01:49:17;96309.91;;;9.51;100.00
54038;BME280;39954;48.844;9.726;2023-05-09T01:50:21;96297.88;;;9.50;100.00
54038;BME280;39954;48.844;9.726;2023-05-09T01:51:27;96306.53;;;9.49;100.00
54038;BME280;39954;48.844;9.726;2023-05-09T01:52:31;96303.94;;;9.49;100.00
54038;BME280;39954;48.844;9.726;2023-05-09T01:53:36;96304.88;;;9.48;100.00
54038;BME280;39954;48.844;9.726;2023-05-09T01:54:41;96304.88;;;9.48;100.00
54038;BME280;39954;48.844;9.726;2023-05-09T01:55:46;96300.66;;;9.46;100.00
54038;BME280;39954;48.844;9.726;2023-05-09T01:56:53;96305.88;;;9.46;100.00
54038;BME280;39954;48.844;9.726;2023-05-09T01:57:56;96302.50;;;9.44;100.00
54038;BME280;39954;48.844;9.726;2023-05-09T01:59:02;96304.19;;;9.45;100.00
54038;BME280;39954;48.844;9.726;2023-05-09T02:00:11;96300.75;;;9.44;100.00
54038;BME280;39954;48.844;9.726;2023-05-09T02:01:17;96309.38;;;9.45;100.00
54038;BME280;39954;48.844;9.726;2023-05-09T02:02:20;96310.22;;;9.45;100.00
54038;BME280;39954;48.844;9.726;2023-05-09T02:03:26;96311.88;;;9.46;100.00
54038;BME280;39954;48.844;9.726;2023-05-09T02:04:29;96317.06;;;9.46;100.00
54038;BME280;39954;48.844;9.726;2023-05-09T02:05:35;96314.78;;;9.40;100.00
54038;BME280;39954;48.844;9.726;2023-05-09T02:06:38;96310.66;;;9.36;100.00
54038;BME280;39954;48.844;9.726;2023-05-09T02:07:45;96307.16;;;9.37;100.00
54038;BME280;39954;48.844;9.726;2023-05-09T02:08:48;96306.31;;;9.36;100.00
54038;BME280;39954;48.844;9.726;2023-05-09T02:09:54;96303.63;;;9.38;100.00
54038;BME280;39954;48.844;9.726;2023-05-09T02:10:57;96310.53;;;9.39;100.00
54038;BME280;39954;48.844;9.726;2023-05-09T02:12:01;96305.34;;;9.39;100.00
54038;BME280;39954;48.844;9.726;2023-05-09T02:13:05;96307.16;;;9.37;100.00
54038;BME280;39954;48.844;9.726;2023-05-09T02:14:10;96302.88;;;9.36;100.00
54038;BME280;39954;48.844;9.726;2023-05-09T02:15:14;96310.72;;;9.34;100.00
54038;BME280;39954;48.844;9.726;2023-05-09T02:16:19;96305.63;;;9.33;100.00
54038;BME280;39954;48.844;9.726;2023-05-09T02:17:21;96306.53;;;9.32;100.00
54038;BME280;39954;48.844;9.726;2023-05-09T02:18:26;96309.28;;;9.29;100.00
54038;BME280;39954;48.844;9.726;2023-05-09T02:19:29;96306.69;;;9.29;100.00
54038;BME280;39954;48.844;9.726;2023-05-09T02:20:34;96305.84;;;9.28;100.00
54038;BME280;39954;48.844;9.726;2023-05-09T02:21:36;96311.09;;;9.27;100.00
54038;BME280;39954;48.844;9.726;2023-05-09T02:22:42;96314.56;;;9.27;100.00
54038;BME280;39954;48.844;9.726;2023-05-09T02:23:44;96308.34;;;9.30;100.00
54038;BME280;39954;48.844;9.726;2023-05-09T02:24:49;96310.94;;;9.30;100.00
54038;BME280;39954;48.844;9.726;2023-05-09T02:25:52;96308.28;;;9.31;100.00
54038;BME280;39954;48.844;9.726;2023-05-09T02:26:57;96310.03;;;9.31;100.00
54038;BME280;39954;48.844;9.726;2023-05-09T02:28:00;96308.44;;;9.28;100.00
54038;BME280;39954;48.844;9.726;2023-05-09T02:29:06;96312.78;;;9.28;100.00
54038;BME280;39954;48.844;9.726;2023-05-09T02:30:15;96306.97;;;9.23;100.00
54038;BME280;39954;48.844;9.726;2023-05-09T02:31:24;96310.72;;;9.17;100.00
54038;BME280;39954;48.844;9.726;2023-05-09T02:32:30;96312.66;;;9.12;100.00
54038;BME280;39954;48.844;9.726;2023-05-09T02:33:37;96308.47;;;9.09;100.00
54038;BME280;39954;48.844;9.726;2023-05-09T02:34:41;96306.03;;;9.06;100.00
54038;BME280;39954;48.844;9.726;2023-05-09T02:35:46;96308.75;;;9.03;100.00
54038;BME280;39954;48.844;9.726;2023-05-09T02:36:48;96309.75;;;9.01;100.00
54038;BME280;39954;48.844;9.726;2023-05-09T02:37:53;96309.91;;;8.98;100.00
54038;BME280;39954;48.844;9.726;2023-05-09T02:38:56;96307.34;;;8.96;100.00
54038;BME280;39954;48.844;9.726;2023-05-09T02:40:00;96310.72;;;8.98;100.00
54038;BME280;39954;48.844;9.726;2023-05-09T02:41:03;96304.75;;;8.96;100.00
54038;BME280;39954;48.844;9.726;2023-05-09T02:42:09;96307.59;;;8.91;100.00
54038;BME280;39954;48.844;9.726;2023-05-09T02:43:12;96308.63;;;8.87;100.00
54038;BME280;39954;48.844;9.726;2023-05-09T02:44:16;96307.78;;;8.87;100.00
54038;BME280;39954;48.844;9.726;2023-05-09T02:45:21;96312.97;;;8.87;100.00
54038;BME280;39954;48.844;9.726;2023-05-09T02:46:26;96308.88;;;8.83;100.00
54038;BME280;39954;48.844;9.726;2023-05-09T02:47:28;96301.25;;;8.80;100.00
54038;BME280;39954;48.844;9.726;2023-05-09T02:48:33;96299.53;;;8.79;100.00
54038;BME280;39954;48.844;9.726;2023-05-09T02:49:35;96301.28;;;8.78;100.00
54038;BME280;39954;48.844;9.726;2023-05-09T02:50:40;96310.00;;;8.77;100.00
54038;BME280;39954;48.844;9.726;2023-05-09T02:51:44;96304.03;;;8.75;100.00
54038;BME280;39954;48.844;9.726;2023-05-09T02:52:48;96297.09;;;8.76;100.00
54038;BME280;39954;48.844;9.726;2023-05-09T02:53:50;96299.63;;;8.77;100.00
54038;BME280;39954;48.844;9.726;2023-05-09T02:54:55;96303.09;;;8.76;100.00
54038;BME280;39954;48.844;9.726;2023-05-09T02:55:57;96294.50;;;8.76;100.00
54038;BME280;39954;48.844;9.726;2023-05-09T02:57:02;96304.88;;;8.76;100.00
54038;BME280;39954;48.844;9.726;2023-05-09T02:58:04;96303.19;;;8.74;100.00
54038;BME280;39954;48.844;9.726;2023-05-09T02:59:17;96300.50;;;8.76;100.00
54038;BME280;39954;48.844;9.726;2023-05-09T03:00:22;96297.91;;;8.76;100.00
54038;BME280;39954;48.844;9.726;2023-05-09T03:01:27;96292.81;;;8.74;100.00
54038;BME280;39954;48.844;9.726;2023-05-09T03:02:29;96294.63;;;8.72;100.00
54038;BME280;39954;48.844;9.726;2023-05-09T03:03:34;96295.56;;;8.71;100.00
54038;BME280;39954;48.844;9.726;2023-05-09T03:04:36;96301.63;;;8.70;100.00
54038;BME280;39954;48.844;9.726;2023-05-09T03:05:41;96301.63;;;8.70;100.00
54038;BME280;39954;48.844;9.726;2023-05-09T03:06:44;96295.72;;;8.68;100.00
54038;BME280;39954;48.844;9.726;2023-05-09T03:07:48;96299.00;;;8.72;100.00
54038;BME280;39954;48.844;9.726;2023-05-09T03:08:52;96295.47;;;8.73;100.00
54038;BME280;39954;48.844;9.726;2023-05-09T03:09:56;96297.09;;;8.76;100.00
54038;BME280;39954;48.844;9.726;2023-05-09T03:10:58;96298.00;;;8.74;100.00
54038;BME280;39954;48.844;9.726;2023-05-09T03:12:04;96295.41;;;8.74;100.00
54038;BME280;39954;48.844;9.726;2023-05-09T03:13:07;96299.69;;;8.76;100.00
54038;BME280;39954;48.844;9.726;2023-05-09T03:14:12;96303.03;;;8.78;100.00
54038;BME280;39954;48.844;9.726;2023-05-09T03:15:15;96296.88;;;8.80;100.00
54038;BME280;39954;48.844;9.726;2023-05-09T03:16:22;96293.38;;;8.81;100.00
54038;BME280;39954;48.844;9.726;2023-05-09T03:17:25;96294.22;;;8.82;100.00
54038;BME280;39954;48.844;9.726;2023-05-09T03:18:29;96295.91;;;8.83;100.00
54038;BME280;39954;48.844;9.726;2023-05-09T03:19:31;96294.06;;;8.85;100.00
54038;BME280;39954;48.844;9.726;2023-05-09T03:20:36;96295.75;;;8.86;100.00
54038;BME280;39954;48.844;9.726;2023-05-09T03:21:38;96294.00;;;8.86;100.00
54038;BME280;39954;48.844;9.726;2023-05-09T03:22:43;96286.28;;;8.85;100.00
54038;BME280;39954;48.844;9.726;2023-05-09T03:23:45;96288.00;;;8.86;100.00
54038;BME280;39954;48.844;9.726;2023-05-09T03:24:50;96282.72;;;8.87;100.00
54038;BME280;39954;48.844;9.726;2023-05-09T03:25:52;96275.03;;;8.86;100.00
54038;BME280;39954;48.844;9.726;2023-05-09T03:26:57;96285.41;;;8.86;100.00
54038;BME280;39954;48.844;9.726;2023-05-09T03:27:59;96280.06;;;8.89;100.00
54038;BME280;39954;48.844;9.726;2023-05-09T03:29:04;96277.38;;;8.90;100.00
54038;BME280;39954;48.844;9.726;2023-05-09T03:30:07;96281.59;;;8.93;100.00
54038;BME280;39954;48.844;9.726;2023-05-09T03:31:12;96288.38;;;8.95;100.00
54038;BME280;39954;48.844;9.726;2023-05-09T03:32:17;96281.31;;;8.99;100.00
54038;BME280;39954;48.844;9.726;2023-05-09T03:33:21;96285.44;;;9.03;100.00
54038;BME280;39954;48.844;9.726;2023-05-09T03:34:23;96287.97;;;9.05;100.00
54038;BME280;39954;48.844;9.726;2023-05-09T03:35:28;96282.69;;;9.06;100.00
54038;BME280;39954;48.844;9.726;2023-05-09T03:36:30;96274.00;;;9.07;100.00
54038;BME280;39954;48.844;9.726;2023-05-09T03:37:35;96286.94;;;9.07;100.00
54038;BME280;39954;48.844;9.726;2023-05-09T03:38:37;96281.78;;;9.07;100.00
54038;BME280;39954;48.844;9.726;2023-05-09T03:39:42;96280.88;;;9.08;100.00
54038;BME280;39954;48.844;9.726;2023-05-09T03:40:44;96285.22;;;9.08;100.00
54038;BME280;39954;48.844;9.726;2023-05-09T03:41:48;96277.34;;;9.09;100.00
54038;BME280;39954;48.844;9.726;2023-05-09T03:42:50;96275.59;;;9.10;100.00
54038;BME280;39954;48.844;9.726;2023-05-09T03:43:55;96270.34;;;9.11;100.00
54038;BME280;39954;48.844;9.726;2023-05-09T03:44:57;96275.38;;;9.14;100.00
54038;BME280;39954;48.844;9.726;2023-05-09T03:46:02;96272.75;;;9.16;100.00
54038;BME280;39954;48.844;9.726;2023-05-09T03:47:04;96275.25;;;9.17;100.00
54038;BME280;39954;48.844;9.726;2023-05-09T03:48:11;96273.41;;;9.19;100.00
54038;BME280;39954;48.844;9.726;2023-05-09T03:49:14;96269.91;;;9.21;100.00
54038;BME280;39954;48.844;9.726;2023-05-09T03:50:18;96268.22;;;9.19;100.00
54038;BME280;39954;48.844;9.726;2023-05-09T03:51:20;96269.84;;;9.22;100.00
54038;BME280;39954;48.844;9.726;2023-05-09T03:52:25;96270.69;;;9.23;100.00
54038;BME280;39954;48.844;9.726;2023-05-09T03:53:27;96262.75;;;9.26;100.00
54038;BME280;39954;48.844;9.726;2023-05-09T03:54:32;96264.41;;;9.27;100.00
54038;BME280;39954;48.844;9.726;2023-05-09T03:55:34;96253.97;;;9.28;100.00
54038;BME280;39954;48.844;9.726;2023-05-09T03:56:39;96256.47;;;9.30;100.00
54038;BME280;39954;48.844;9.726;2023-05-09T03:57:41;96253.88;;;9.30;100.00
54038;BME280;39954;48.844;9.726;2023-05-09T03:58:46;96255.59;;;9.31;100.00
54038;BME280;39954;48.844;9.726;2023-05-09T03:59:49;96263.28;;;9.32;100.00
54038;BME280;39954;48.844;9.726;2023-05-09T04:00:53;96252.06;;;9.32;100.00
54038;BME280;39954;48.844;9.726;2023-05-09T04:01:56;96252.00;;;9.33;100.00
54038;BME280;39954;48.844;9.726;2023-05-09T04:03:01;96257.09;;;9.35;100.00
54038;BME280;39954;48.844;9.726;2023-05-09T04:04:06;96248.41;;;9.36;100.00
54038;BME280;39954;48.844;9.726;2023-05-09T04:05:11;96244.91;;;9.37;100.00
54038;BME280;39954;48.844;9.726;2023-05-09T04:06:14;96239.72;;;9.37;100.00
54038;BME280;39954;48.844;9.726;2023-05-09T04:07:19;96243.91;;;9.39;100.00
54038;BME280;39954;48.844;9.726;2023-05-09T04:08:21;96245.59;;;9.40;100.00
54038;BME280;39954;48.844;9.726;2023-05-09T04:09:26;96242.00;;;9.43;100.00
54038;BME280;39954;48.844;9.726;2023-05-09T04:10:31;96250.56;;;9.45;100.00
54038;BME280;39954;48.844;9.726;2023-05-09T04:11:33;96241.84;;;9.46;100.00
54038;BME280;39954;48.844;9.726;2023-05-09T04:12:37;96247.03;;;9.46;100.00
54038;BME280;39954;48.844;9.726;2023-05-09T04:13:40;96239.19;;;9.48;100.00
54038;BME280;39954;48.844;9.726;2023-05-09T04:14:44;96241.63;;;9.51;100.00
54038;BME280;39954;48.844;9.726;2023-05-09T04:15:49;96245.00;;;9.53;100.00
54038;BME280;39954;48.844;9.726;2023-05-09T04:16:54;96251.00;;;9.53;100.00
54038;BME280;39954;48.844;9.726;2023-05-09T04:17:56;96246.59;;;9.55;100.00
54038;BME280;39954;48.844;9.726;2023-05-09T04:19:01;96249.94;;;9.57;100.00
54038;BME280;39954;48.844;9.726;2023-05-09T04:20:07;96251.47;;;9.61;100.00
54038;BME280;39954;48.844;9.726;2023-05-09T04:21:12;96252.25;;;9.63;100.00
54038;BME280;39954;48.844;9.726;2023-05-09T04:22:14;96248.72;;;9.64;100.00
54038;BME280;39954;48.844;9.726;2023-05-09T04:23:19;96255.41;;;9.69;100.00
54038;BME280;39954;48.844;9.726;2023-05-09T04:24:21;96247.56;;;9.70;100.00
54038;BME280;39954;48.844;9.726;2023-05-09T04:25:25;96247.41;;;9.73;100.00
54038;BME280;39954;48.844;9.726;2023-05-09T04:26:27;96252.53;;;9.75;100.00
54038;BME280;39954;48.844;9.726;2023-05-09T04:27:32;96259.22;;;9.79;100.00
54038;BME280;39954;48.844;9.726;2023-05-09T04:28:34;96260.00;;;9.81;100.00
54038;BME280;39954;48.844;9.726;2023-05-09T04:29:39;96259.84;;;9.84;100.00
54038;BME280;39954;48.844;9.726;2023-05-09T04:30:41;96259.69;;;9.87;100.00
54038;BME280;39954;48.844;9.726;2023-05-09T04:31:46;96254.34;;;9.90;100.00
54038;BME280;39954;48.844;9.726;2023-05-09T04:32:48;96244.63;;;9.94;100.00
54038;BME280;39954;48.844;9.726;2023-05-09T04:33:54;96254.00;;;9.96;100.00
54038;BME280;39954;48.844;9.726;2023-05-09T04:34:56;96248.66;;;9.99;100.00
54038;BME280;39954;48.844;9.726;2023-05-09T04:36:04;96247.50;;;10.05;100.00
54038;BME280;39954;48.844;9.726;2023-05-09T04:37:06;96244.84;;;10.06;100.00
54038;BME280;39954;48.844;9.726;2023-05-09T04:38:11;96241.31;;;10.07;100.00
54038;BME280;39954;48.844;9.726;2023-05-09T04:39:13;96242.00;;;10.11;100.00
54038;BME280;39954;48.844;9.726;2023-05-09T04:40:18;96244.50;;;10.13;100.00
54038;BME280;39954;48.844;9.726;2023-05-09T04:41:20;96237.47;;;10.15;100.00
54038;BME280;39954;48.844;9.726;2023-05-09T04:42:25;96241.69;;;10.17;100.00
54038;BME280;39954;48.844;9.726;2023-05-09T04:43:27;96240.69;;;10.20;100.00
54038;BME280;39954;48.844;9.726;2023-05-09T04:44:33;96248.38;;;10.21;100.00
54038;BME280;39954;48.844;9.726;2023-05-09T04:45:36;96245.72;;;10.23;100.00
54038;BME280;39954;48.844;9.726;2023-05-09T04:46:41;96247.38;;;10.24;100.00
54038;BME280;39954;48.844;9.726;2023-05-09T04:47:44;96245.53;;;10.26;100.00
54038;BME280;39954;48.844;9.726;2023-05-09T04:48:49;96242.06;;;10.27;100.00
54038;BME280;39954;48.844;9.726;2023-05-09T04:49:51;96240.28;;;10.27;100.00
54038;BME280;39954;48.844;9.726;2023-05-09T04:50:56;96243.59;;;10.31;100.00
54038;BME280;39954;48.844;9.726;2023-05-09T04:52:00;96237.53;;;10.30;100.00
54038;BME280;39954;48.844;9.726;2023-05-09T04:53:05;96244.41;;;10.32;100.00
54038;BME280;39954;48.844;9.726;2023-05-09T04:54:09;96252.09;;;10.33;100.00
54038;BME280;39954;48.844;9.726;2023-05-09T04:55:13;96240.97;;;10.31;100.00
54038;BME280;39954;48.844;9.726;2023-05-09T04:56:16;96247.84;;;10.32;100.00
54038;BME280;39954;48.844;9.726;2023-05-09T04:57:21;96244.41;;;10.32;100.00
54038;BME280;39954;48.844;9.726;2023-05-09T04:58:23;96251.22;;;10.34;100.00
54038;BME280;39954;48.844;9.726;2023-05-09T04:59:27;96243.41;;;10.34;100.00
54038;BME280;39954;48.844;9.726;2023-05-09T05:00:29;96246.84;;;10.35;100.00
54038;BME280;39954;48.844;9.726;2023-05-09T05:01:34;96248.69;;;10.33;100.00
54038;BME280;39954;48.844;9.726;2023-05-09T05:02:36;96247.84;;;10.32;100.00
54038;BME280;39954;48.844;9.726;2023-05-09T05:03:41;96243.59;;;10.31;100.00
54038;BME280;39954;48.844;9.726;2023-05-09T05:04:43;96238.38;;;10.31;100.00
54038;BME280;39954;48.844;9.726;2023-05-09T05:05:48;96242.72;;;10.30;100.00
54038;BME280;39954;48.844;9.726;2023-05-09T05:06:50;96234.03;;;10.32;100.00
54038;BME280;39954;48.844;9.726;2023-05-09T05:07:57;96246.19;;;10.31;100.00
54038;BME280;39954;48.844;9.726;2023-05-09T05:09:00;96245.09;;;10.35;100.00
54038;BME280;39954;48.844;9.726;2023-05-09T05:10:05;96244.16;;;10.36;100.00
54038;BME280;39954;48.844;9.726;2023-05-09T05:11:08;96241.41;;;10.39;100.00
54038;BME280;39954;48.844;9.726;2023-05-09T05:12:12;96242.31;;;10.38;100.00
54038;BME280;39954;48.844;9.726;2023-05-09T05:13:15;96244.84;;;10.40;100.00
54038;BME280;39954;48.844;9.726;2023-05-09T05:14:20;96240.31;;;10.43;100.00
54038;BME280;39954;48.844;9.726;2023-05-09T05:15:22;96239.38;;;10.44;100.00
54038;BME280;39954;48.844;9.726;2023-05-09T05:16:27;96244.34;;;10.49;100.00
54038;BME280;39954;48.844;9.726;2023-05-09T05:17:29;96249.81;;;10.60;100.00
54038;BME280;39954;48.844;9.726;2023-05-09T05:18:34;96246.13;;;10.64;100.00
54038;BME280;39954;48.844;9.726;2023-05-09T05:19:36;96250.88;;;10.72;100.00
54038;BME280;39954;48.844;9.726;2023-05-09T05:20:41;96251.25;;;10.82;100.00
54038;BME280;39954;48.844;9.726;2023-05-09T05:21:46;96248.03;;;10.92;100.00
54038;BME280;39954;48.844;9.726;2023-05-09T05:22:48;96243.22;;;11.01;100.00
54038;BME280;39954;48.844;9.726;2023-05-09T05:23:57;96239.19;;;11.11;100.00
54038;BME280;39954;48.844;9.726;2023-05-09T05:24:59;96233.47;;;11.20;100.00
54038;BME280;39954;48.844;9.726;2023-05-09T05:26:05;96226.94;;;11.29;100.00
54038;BME280;39954;48.844;9.726;2023-05-09T05:27:07;96235.03;;;11.38;100.00
54038;BME280;39954;48.844;9.726;2023-05-09T05:28:12;96237.91;;;11.48;100.00
54038;BME280;39954;48.844;9.726;2023-05-09T05:29:14;96237.31;;;11.59;100.00
54038;BME280;39954;48.844;9.726;2023-05-09T05:30:19;96230.63;;;11.69;100.00
54038;BME280;39954;48.844;9.726;2023-05-09T05:31:21;96239.59;;;11.79;100.00
54038;BME280;39954;48.844;9.726;2023-05-09T05:32:26;96233.69;;;11.92;100.00
54038;BME280;39954;48.844;9.726;2023-05-09T05:33:39;96225.22;;;12.02;100.00
54038;BME280;39954;48.844;9.726;2023-05-09T05:34:44;96227.06;;;12.15;100.00
54038;BME280;39954;48.844;9.726;2023-05-09T05:35:46;96225.47;;;12.26;100.00
54038;BME280;39954;48.844;9.726;2023-05-09T05:36:52;96216.28;;;12.35;100.00
54038;BME280;39954;48.844;9.726;2023-05-09T05:37:54;96225.31;;;12.44;100.00
54038;BME280;39954;48.844;9.726;2023-05-09T05:39:01;96228.28;;;12.52;100.00
54038;BME280;39954;48.844;9.726;2023-05-09T05:40:04;96221.72;;;12.59;100.00
54038;BME280;39954;48.844;9.726;2023-05-09T05:41:09;96220.41;;;12.66;100.00
54038;BME280;39954;48.844;9.726;2023-05-09T05:42:12;96219.41;;;12.69;100.00
54038;BME280;39954;48.844;9.726;2023-05-09T05:43:17;96219.72;;;12.77;100.00
54038;BME280;39954;48.844;9.726;2023-05-09T05:44:21;96218.69;;;12.80;100.00